Time;durP1;ratioP1;P1;durP2;ratioP2;P2;SDS_P1;SDS_P2;PMS_P1;PMS_P2;Temp;Humidity;BMP_temperature;BMP_pressure;BME280_temperature;BME280_humidity;BME280_pressure;Samples;Min_cycle;Max_cycle;Signal;HPM_P1;HPM_P2
2023/04/17 00:02:18;;;;;;;54.40;32.95;;;8.40;99.90;;;;;;4882170;28;90047;-33
2023/04/17 00:04:44;;;;;;;50.22;32.88;;;8.30;99.90;;;;;;4882117;28;90258;-32
2023/04/17 00:07:10;;;;;;;55.42;31.85;;;8.40;99.90;;;;;;4913867;23;89579;-31
2023/04/17 00:09:35;;;;;;;57.83;36.13;;;8.30;99.90;;;;;;4882607;28;90236;-31
2023/04/17 00:12:01;;;;;;;58.35;33.45;;;8.40;99.90;;;;;;4882501;28;90027;-31
2023/04/17 00:14:27;;;;;;;60.88;37.15;;;8.40;99.90;;;;;;4880310;28;89762;-35
2023/04/17 00:16:53;;;;;;;61.47;36.20;;;8.30;99.90;;;;;;4871025;28;90097;-30
2023/04/17 00:19:19;;;;;;;58.72;36.33;;;8.30;99.90;;;;;;4881392;28;89370;-30
2023/04/17 00:21:45;;;;;;;59.30;32.17;;;8.30;99.90;;;;;;4882430;28;87540;-32
2023/04/17 00:24:11;;;;;;;64.00;35.13;;;8.30;99.90;;;;;;4869429;28;90252;-30
2023/04/17 00:26:37;;;;;;;58.40;34.67;;;8.40;99.90;;;;;;4881415;28;89312;-32
2023/04/17 00:29:03;;;;;;;51.00;31.95;;;8.40;99.90;;;;;;4881695;28;89904;-32
2023/04/17 00:31:29;;;;;;;60.40;33.42;;;8.40;99.90;;;;;;4885525;28;90200;-33
2023/04/17 00:33:54;;;;;;;63.47;35.42;;;8.40;99.90;;;;;;4881768;28;89511;-35
2023/04/17 00:36:20;;;;;;;59.00;37.00;;;8.40;99.90;;;;;;4881500;28;89334;-33
2023/04/17 00:38:46;;;;;;;58.97;33.90;;;8.40;99.90;;;;;;4880804;28;89756;-33
2023/04/17 00:41:11;;;;;;;56.13;32.67;;;8.40;99.90;;;;;;4882742;28;89372;-31
2023/04/17 00:43:37;;;;;;;50.20;32.45;;;8.40;99.90;;;;;;4881276;28;88968;-30
2023/04/17 00:46:04;;;;;;;41.38;30.23;;;8.40;99.90;;;;;;4877134;28;89500;-34
2023/04/17 00:48:31;;;;;;;54.10;34.60;;;8.40;99.90;;;;;;4877565;28;89607;-32
2023/04/17 00:51:01;;;;;;;57.10;35.33;;;8.40;99.90;;;;;;4881058;28;88744;-32
2023/04/17 00:53:28;;;;;;;44.53;31.98;;;8.40;99.90;;;;;;4879866;28;90319;-31
2023/04/17 00:55:54;;;;;;;51.37;31.37;;;8.40;99.90;;;;;;4880778;28;90759;-30
2023/04/17 00:58:20;;;;;;;49.95;33.42;;;8.40;99.90;;;;;;4881686;28;90353;-31
2023/04/17 01:00:47;;;;;;;46.92;29.95;;;8.40;99.90;;;;;;4881214;28;88203;-33
2023/04/17 01:03:13;;;;;;;53.35;31.77;;;8.40;99.90;;;;;;4880211;28;89347;-31
2023/04/17 01:05:39;;;;;;;47.58;30.60;;;8.40;99.90;;;;;;4881390;28;89934;-33
2023/04/17 01:08:05;;;;;;;58.88;30.80;;;8.40;99.90;;;;;;4880891;28;88661;-31
2023/04/17 01:10:31;;;;;;;54.00;33.38;;;8.40;99.90;;;;;;4882024;28;89368;-34
2023/04/17 01:13:05;;;;;;;47.92;33.00;;;8.40;99.90;;;;;;4880414;28;89301;-32
2023/04/17 01:15:30;;;;;;;53.05;30.50;;;8.40;99.90;;;;;;4881205;28;89432;-31
2023/04/17 01:17:56;;;;;;;56.97;31.92;;;8.40;99.90;;;;;;4880711;28;91592;-32
2023/04/17 01:20:24;;;;;;;45.47;28.95;;;8.40;99.90;;;;;;4881266;28;89679;-32
2023/04/17 01:22:50;;;;;;;46.75;27.55;;;8.40;99.90;;;;;;4877980;28;90403;-31
2023/04/17 01:25:17;;;;;;;51.03;30.60;;;8.40;99.90;;;;;;4872165;28;89263;-32
2023/04/17 01:27:42;;;;;;;55.65;34.17;;;8.40;99.90;;;;;;4880273;28;89567;-32
2023/04/17 01:30:08;;;;;;;57.33;33.80;;;8.40;99.90;;;;;;4881114;28;88729;-34
2023/04/17 01:32:34;;;;;;;47.15;30.65;;;8.40;99.90;;;;;;4880852;28;89808;-33
2023/04/17 01:34:59;;;;;;;41.65;29.17;;;8.40;99.90;;;;;;4880950;28;89964;-32
2023/04/17 01:37:25;;;;;;;43.63;28.50;;;8.40;99.90;;;;;;4881014;28;89078;-32
2023/04/17 01:39:51;;;;;;;52.58;32.00;;;8.40;99.90;;;;;;4880875;28;90520;-31
2023/04/17 01:42:16;;;;;;;39.95;27.33;;;8.50;99.90;;;;;;4880896;28;91195;-32
2023/04/17 01:44:42;;;;;;;45.40;29.55;;;8.40;99.90;;;;;;4880158;28;91711;-31
2023/04/17 01:47:07;;;;;;;49.78;29.23;;;8.40;99.90;;;;;;4881051;28;90339;-34
2023/04/17 01:49:33;;;;;;;45.28;25.65;;;8.40;99.90;;;;;;4881024;28;89726;-34
2023/04/17 01:51:59;;;;;;;43.75;27.02;;;8.40;99.90;;;;;;4880062;28;90110;-31
2023/04/17 01:54:24;;;;;;;47.60;30.38;;;8.40;99.90;;;;;;4881222;28;90589;-32
2023/04/17 01:56:50;;;;;;;51.03;29.80;;;8.40;99.90;;;;;;4880511;28;88419;-35
2023/04/17 01:59:16;;;;;;;42.67;28.17;;;8.40;99.90;;;;;;4881284;28;88888;-33
2023/04/17 02:01:41;;;;;;;40.65;27.45;;;8.40;99.90;;;;;;4880332;28;90312;-29
2023/04/17 02:04:07;;;;;;;43.53;29.80;;;8.40;99.90;;;;;;4882394;28;89880;-31
2023/04/17 02:06:33;;;;;;;49.65;31.30;;;8.40;99.90;;;;;;4882739;28;90024;-30
2023/04/17 02:08:58;;;;;;;47.50;28.20;;;8.40;99.90;;;;;;4884195;28;90848;-36
2023/04/17 02:11:25;;;;;;;47.00;32.05;;;8.40;99.90;;;;;;4884195;28;90369;-32
2023/04/17 02:13:50;;;;;;;41.33;27.05;;;8.40;99.90;;;;;;4883181;28;89612;-31
2023/04/17 02:16:20;;;;;;;47.45;28.25;;;8.40;99.90;;;;;;4883999;28;89632;-32
2023/04/17 02:18:46;;;;;;;47.08;28.83;;;8.40;99.90;;;;;;4884460;28;89423;-31
2023/04/17 02:21:12;;;;;;;45.40;28.15;;;8.40;99.90;;;;;;4883806;28;91226;-30
2023/04/17 02:23:38;;;;;;;44.28;28.10;;;8.40;99.90;;;;;;4873882;28;89635;-33
2023/04/17 02:26:04;;;;;;;45.78;30.50;;;8.40;99.90;;;;;;4880711;28;91279;-33
2023/04/17 02:28:29;;;;;;;41.30;27.63;;;8.30;99.90;;;;;;4883621;28;89793;-33
2023/04/17 02:30:55;;;;;;;48.45;28.75;;;8.30;99.90;;;;;;4883023;28;90896;-32
2023/04/17 02:33:21;;;;;;;49.78;31.20;;;8.30;99.90;;;;;;4882937;28;90472;-30
2023/04/17 02:35:47;;;;;;;48.42;28.90;;;8.30;99.90;;;;;;4883174;28;91212;-35
2023/04/17 02:38:12;;;;;;;48.17;27.98;;;8.40;99.90;;;;;;4883731;28;90180;-31
2023/04/17 02:40:38;;;;;;;46.40;31.48;;;8.40;99.90;;;;;;4882638;28;90320;-35
2023/04/17 02:43:04;;;;;;;47.40;31.85;;;8.30;99.90;;;;;;4883777;28;89790;-32
2023/04/17 02:45:29;;;;;;;51.05;30.08;;;8.30;99.90;;;;;;4883379;28;90032;-29
2023/04/17 02:47:55;;;;;;;53.17;29.77;;;8.30;99.90;;;;;;4883229;28;88114;-30
2023/04/17 02:50:21;;;;;;;46.78;30.92;;;8.30;99.90;;;;;;4883439;28;90097;-33
2023/04/17 02:52:47;;;;;;;45.38;27.10;;;8.30;99.90;;;;;;4882673;28;89745;-33
2023/04/17 02:55:12;;;;;;;48.38;35.28;;;8.30;99.90;;;;;;4883639;28;89173;-33
2023/04/17 02:57:38;;;;;;;59.92;32.95;;;8.30;99.90;;;;;;4882812;28;89740;-31
2023/04/17 03:00:06;;;;;;;53.80;31.30;;;8.30;99.90;;;;;;4882873;28;89729;-31
2023/04/17 03:02:32;;;;;;;;;;;8.30;99.90;;;;;;4883772;28;89829;-30
2023/04/17 03:05:00;;;;;;;48.05;28.85;;;8.30;99.90;;;;;;4884581;28;89170;-30
2023/04/17 03:07:26;;;;;;;57.33;32.90;;;8.30;99.90;;;;;;4881397;28;89243;-34
2023/04/17 03:09:52;;;;;;;48.22;30.38;;;8.30;99.90;;;;;;4882933;28;89024;-34
2023/04/17 03:12:18;;;;;;;64.20;37.33;;;8.30;99.90;;;;;;4883030;28;89543;-33
2023/04/17 03:14:44;;;;;;;57.60;33.45;;;8.30;99.90;;;;;;4882352;28;89351;-32
2023/04/17 03:17:10;;;;;;;52.75;32.38;;;8.20;99.90;;;;;;4882708;28;90330;-30
2023/04/17 03:19:36;;;;;;;54.83;33.38;;;8.30;99.90;;;;;;4882587;28;90304;-34
2023/04/17 03:22:03;;;;;;;51.90;32.25;;;8.20;99.90;;;;;;4882966;28;91723;-31
2023/04/17 03:24:30;;;;;;;61.50;34.33;;;8.20;99.90;;;;;;4869632;28;90864;-33
2023/04/17 03:26:56;;;;;;;55.00;33.03;;;8.20;99.90;;;;;;4882350;28;88890;-35
2023/04/17 03:29:22;;;;;;;55.65;35.45;;;8.20;99.90;;;;;;4882446;28;90209;-30
2023/04/17 03:31:47;;;;;;;59.70;32.00;;;8.20;99.90;;;;;;4882262;28;89286;-30
2023/04/17 03:34:13;;;;;;;51.67;33.33;;;8.20;99.90;;;;;;4882668;28;89317;-35
2023/04/17 03:36:39;;;;;;;47.08;29.90;;;8.20;99.90;;;;;;4882619;28;89455;-32
2023/04/17 03:39:04;;;;;;;59.58;31.88;;;8.20;99.90;;;;;;4882335;28;90663;-34
2023/04/17 03:41:30;;;;;;;53.45;33.92;;;8.20;99.90;;;;;;4883456;28;90111;-31
2023/04/17 03:43:55;;;;;;;49.13;32.80;;;8.20;99.90;;;;;;4881274;28;89223;-30
2023/04/17 03:46:21;;;;;;;48.83;30.90;;;8.30;99.90;;;;;;4882928;28;90560;-34
2023/04/17 03:48:47;;;;;;;55.58;34.63;;;8.30;99.90;;;;;;4881817;28;90246;-34
2023/04/17 03:51:12;;;;;;;57.00;35.78;;;8.30;99.90;;;;;;4882526;28;89897;-34
2023/04/17 03:53:38;;;;;;;48.83;33.65;;;8.20;99.90;;;;;;4881851;28;89816;-31
2023/04/17 03:56:04;;;;;;;63.40;35.42;;;8.20;99.90;;;;;;4881978;28;89148;-33
2023/04/17 03:58:29;;;;;;;60.75;36.80;;;8.20;99.90;;;;;;4882527;28;89808;-31
2023/04/17 04:00:57;;;;;;;56.15;33.97;;;8.20;99.90;;;;;;4881993;28;89780;-30
2023/04/17 04:03:26;;;;;;;54.80;31.90;;;8.20;99.90;;;;;;4882278;28;88885;-34
2023/04/17 04:05:52;;;;;;;50.58;33.10;;;8.20;99.90;;;;;;4881796;28;89744;-32
2023/04/17 04:08:17;;;;;;;52.95;32.88;;;8.20;99.90;;;;;;4881950;28;90760;-30
2023/04/17 04:10:43;;;;;;;51.33;34.03;;;8.20;99.90;;;;;;4880984;28;90894;-31
2023/04/17 04:13:10;;;;;;;48.10;32.03;;;8.20;99.90;;;;;;4881939;28;90386;-33
2023/04/17 04:15:35;;;;;;;53.03;34.00;;;8.20;99.90;;;;;;4882430;28;89459;-33
2023/04/17 04:18:01;;;;;;;55.10;32.78;;;8.20;99.90;;;;;;4881550;28;89997;-33
2023/04/17 04:20:27;;;;;;;51.65;33.35;;;8.10;99.90;;;;;;4882620;28;89464;-30
2023/04/17 04:22:56;;;;;;;51.80;33.58;;;8.10;99.90;;;;;;4876676;28;90466;-31
2023/04/17 04:25:25;;;;;;;54.08;34.42;;;8.10;99.90;;;;;;4873531;28;88613;-34
2023/04/17 04:27:51;;;;;;;49.50;31.10;;;8.20;99.90;;;;;;4880645;28;90293;-30
2023/04/17 04:30:18;;;;;;;52.25;32.80;;;8.10;99.90;;;;;;4880107;28;90823;-34
2023/04/17 04:32:44;;;;;;;57.63;35.95;;;8.10;99.90;;;;;;4881399;28;89722;-34
2023/04/17 04:35:10;;;;;;;65.25;36.25;;;8.10;99.90;;;;;;4881499;28;89911;-31
2023/04/17 04:37:36;;;;;;;52.10;33.80;;;8.10;99.90;;;;;;4881600;28;90140;-32
2023/04/17 04:40:09;;;;;;;53.30;33.38;;;8.10;99.90;;;;;;4887124;28;89644;-31
2023/04/17 04:42:35;;;;;;;59.38;35.55;;;8.10;99.90;;;;;;4882379;28;89229;-30
2023/04/17 04:45:01;;;;;;;61.58;37.00;;;8.10;99.90;;;;;;4876553;28;89088;-31
2023/04/17 04:47:27;;;;;;;60.78;38.15;;;8.10;99.90;;;;;;4882005;28;91129;-31
2023/04/17 04:49:52;;;;;;;53.92;35.22;;;8.10;99.90;;;;;;4881636;28;90662;-31
2023/04/17 04:52:18;;;;;;;62.45;36.70;;;8.10;99.90;;;;;;4880955;28;89321;-32
2023/04/17 04:54:43;;;;;;;59.17;35.90;;;8.10;99.90;;;;;;4881518;28;88862;-32
2023/04/17 04:57:09;;;;;;;50.03;35.45;;;8.10;99.90;;;;;;4880964;28;90443;-32
2023/04/17 04:59:35;;;;;;;55.75;34.10;;;8.10;99.90;;;;;;4881250;28;90207;-35
2023/04/17 05:02:00;;;;;;;59.40;35.00;;;8.20;99.90;;;;;;4881134;28;90896;-31
2023/04/17 05:04:26;;;;;;;59.67;33.92;;;8.20;99.90;;;;;;4881272;28;89282;-34
2023/04/17 05:06:51;;;;;;;58.55;36.08;;;8.10;99.90;;;;;;4878580;28;90363;-32
2023/04/17 05:09:17;;;;;;;66.43;34.30;;;8.10;99.90;;;;;;4881626;28;89857;-32
2023/04/17 05:11:43;;;;;;;58.72;33.92;;;8.10;99.90;;;;;;4880835;28;91203;-33
2023/04/17 05:14:08;;;;;;;65.05;34.67;;;8.20;99.90;;;;;;4881215;28;89205;-32
2023/04/17 05:16:34;;;;;;;63.78;34.60;;;8.20;99.90;;;;;;4880932;28;90242;-34
2023/04/17 05:18:59;;;;;;;54.47;34.60;;;8.20;99.90;;;;;;4880657;28;89676;-32
2023/04/17 05:21:26;;;;;;;53.90;32.15;;;8.10;99.90;;;;;;4880930;28;89441;-32
2023/04/17 05:23:52;;;;;;;54.90;33.22;;;8.10;99.90;;;;;;4868839;28;90554;-34
2023/04/17 05:26:20;;;;;;;45.65;32.38;;;8.10;99.90;;;;;;4879728;28;90608;-32
2023/04/17 05:28:46;;;;;;;46.60;32.47;;;8.10;99.90;;;;;;4879175;28;89666;-31
2023/04/17 05:31:12;;;;;;;57.40;33.92;;;8.10;99.90;;;;;;4880956;28;89975;-33
2023/04/17 05:33:38;;;;;;;55.35;31.33;;;8.00;99.90;;;;;;4881170;28;89263;-31
2023/04/17 05:36:04;;;;;;;47.30;30.83;;;8.00;99.90;;;;;;4880646;28;88687;-33
2023/04/17 05:38:30;;;;;;;56.10;32.03;;;8.00;99.90;;;;;;4881256;28;90523;-31
2023/04/17 05:40:56;;;;;;;51.67;28.83;;;8.00;99.90;;;;;;4884119;28;89388;-34
2023/04/17 05:43:21;;;;;;;52.58;30.88;;;8.00;99.90;;;;;;4884649;28;89783;-31
2023/04/17 05:45:47;;;;;;;49.83;28.60;;;8.00;99.90;;;;;;4883121;28;89360;-30
2023/04/17 05:48:13;;;;;;;49.83;31.60;;;8.10;99.90;;;;;;4883806;28;90557;-30
2023/04/17 05:50:39;;;;;;;57.88;31.17;;;8.10;99.90;;;;;;4883916;28;90607;-32
2023/04/17 05:53:04;;;;;;;47.10;28.13;;;8.10;99.90;;;;;;4884007;28;89550;-33
2023/04/17 05:55:30;;;;;;;50.08;30.88;;;8.00;99.90;;;;;;4883742;28;90669;-30
2023/04/17 05:57:56;;;;;;;44.10;28.02;;;8.10;99.90;;;;;;4883360;28;89812;-34
2023/04/17 06:00:22;;;;;;;44.25;27.27;;;8.10;99.90;;;;;;4891972;28;89436;-35
2023/04/17 06:02:48;;;;;;;46.58;31.95;;;8.20;99.90;;;;;;4882018;28;87760;-31
2023/04/17 06:05:15;;;;;;;50.03;30.50;;;8.20;99.90;;;;;;4874010;28;89247;-32
2023/04/17 06:07:41;;;;;;;42.38;29.65;;;8.20;99.90;;;;;;4881190;28;88306;-32
2023/04/17 06:10:07;;;;;;;49.72;31.80;;;8.20;99.90;;;;;;4881408;28;89174;-33
2023/04/17 06:12:34;;;;;;;46.83;29.33;;;8.20;99.90;;;;;;4881728;28;90418;-35
2023/04/17 06:15:00;;;;;;;52.38;30.85;;;8.10;99.90;;;;;;4881924;28;91344;-30
2023/04/17 06:17:25;;;;;;;49.90;31.83;;;8.20;99.90;;;;;;4881626;28;89313;-30
2023/04/17 06:19:51;;;;;;;43.92;31.13;;;8.20;99.90;;;;;;4881507;28;90888;-31
2023/04/17 06:22:16;;;;;;;39.40;28.58;;;8.20;99.90;;;;;;4881306;28;89147;-30
2023/04/17 06:24:42;;;;;;;48.63;31.55;;;8.20;99.90;;;;;;4867744;28;90761;-35
2023/04/17 06:27:08;;;;;;;50.60;30.27;;;8.20;99.90;;;;;;4880207;28;89517;-32
2023/04/17 06:29:33;;;;;;;46.38;29.15;;;8.20;99.90;;;;;;4879825;28;89230;-35
2023/04/17 06:31:59;;;;;;;44.88;29.65;;;8.30;99.90;;;;;;4879980;28;89968;-32
2023/04/17 06:34:24;;;;;;;51.50;29.92;;;8.30;99.90;;;;;;4879525;28;89890;-30
2023/04/17 06:36:50;;;;;;;46.85;29.85;;;8.20;99.90;;;;;;4879571;28;90713;-32
2023/04/17 06:39:16;;;;;;;50.47;29.92;;;8.20;99.90;;;;;;4879478;28;90424;-31
2023/04/17 06:41:42;;;;;;;46.28;32.28;;;8.30;99.90;;;;;;4881165;28;89286;-35
2023/04/17 06:44:07;;;;;;;47.30;30.20;;;8.30;99.90;;;;;;4880931;28;90487;-32
2023/04/17 06:46:33;;;;;;;53.63;28.35;;;8.30;99.90;;;;;;4881437;28;89813;-32
2023/04/17 06:48:59;;;;;;;48.63;29.83;;;8.30;99.90;;;;;;4881660;28;90019;-30
2023/04/17 06:51:26;;;;;;;46.35;31.08;;;8.20;99.90;;;;;;4880580;28;88659;-32
2023/04/17 06:53:52;;;;;;;43.00;29.63;;;8.30;99.90;;;;;;4880749;28;90884;-33
2023/04/17 06:56:19;;;;;;;52.72;31.35;;;8.30;99.90;;;;;;4881089;28;89999;-35
2023/04/17 06:58:44;;;;;;;46.30;30.33;;;8.40;99.90;;;;;;4879996;28;89646;-32
2023/04/17 07:01:11;;;;;;;45.63;30.08;;;8.30;99.90;;;;;;4881364;28;90597;-29
2023/04/17 07:03:38;;;;;;;41.72;27.23;;;8.40;99.90;;;;;;4881490;28;91957;-31
2023/04/17 07:06:04;;;;;;;41.53;29.02;;;8.40;99.90;;;;;;4880757;28;90300;-33
2023/04/17 07:08:29;;;;;;;51.15;31.40;;;8.50;99.90;;;;;;4880412;28;89340;-30
2023/04/17 07:10:55;;;;;;;52.42;31.17;;;8.50;99.90;;;;;;4881029;28;90060;-31
2023/04/17 07:13:20;;;;;;;49.88;31.73;;;8.60;99.90;;;;;;4880533;28;89860;-30
2023/04/17 07:15:53;;;;;;;57.17;34.55;;;8.60;99.90;;;;;;4881783;28;88841;-34
2023/04/17 07:18:18;;;;;;;57.15;34.35;;;8.70;99.90;;;;;;4881094;28;90259;-32
2023/04/17 07:20:44;;;;;;;54.72;35.28;;;8.70;99.90;;;;;;4880959;28;89505;-32
2023/04/17 07:23:10;;;;;;;50.35;33.10;;;8.70;99.90;;;;;;4873108;28;90580;-31
2023/04/17 07:25:36;;;;;;;52.03;32.70;;;8.70;99.90;;;;;;4874113;28;90970;-35
2023/04/17 07:28:01;;;;;;;56.88;32.92;;;8.80;99.90;;;;;;4880075;28;90536;-31
2023/04/17 07:30:27;;;;;;;50.53;36.10;;;8.80;99.90;;;;;;4881342;28;89832;-35
2023/04/17 07:32:53;;;;;;;56.78;35.50;;;8.90;99.90;;;;;;4879716;28;90112;-34
2023/04/17 07:35:18;;;;;;;48.90;35.08;;;8.90;99.90;;;;;;4881363;28;90513;-33
2023/04/17 07:37:44;;;;;;;46.50;30.48;;;8.90;99.90;;;;;;4880425;28;90394;-31
2023/04/17 07:40:10;;;;;;;50.17;32.40;;;9.00;99.90;;;;;;4880358;28;89507;-31
2023/04/17 07:42:36;;;;;;;56.15;33.58;;;9.00;99.90;;;;;;4880301;28;92692;-30
2023/04/17 07:45:03;;;;;;;62.00;33.25;;;9.00;99.90;;;;;;4878842;28;90056;-34
2023/04/17 07:47:29;;;;;;;59.38;32.55;;;9.00;99.90;;;;;;4879102;28;89668;-33
2023/04/17 07:49:55;;;;;;;47.65;34.00;;;9.10;99.90;;;;;;4880279;28;89695;-32
2023/04/17 07:52:21;;;;;;;50.10;34.15;;;9.10;99.90;;;;;;4879727;28;90669;-32
2023/04/17 07:54:47;;;;;;;48.88;31.77;;;9.10;99.90;;;;;;4879986;28;90077;-31
2023/04/17 07:57:14;;;;;;;47.00;28.85;;;9.30;99.90;;;;;;4880066;28;89220;-33
2023/04/17 07:59:40;;;;;;;54.00;34.90;;;9.30;99.90;;;;;;4880415;28;90012;-34
2023/04/17 08:02:06;;;;;;;57.95;34.15;;;9.30;99.90;;;;;;4880283;28;89957;-33
2023/04/17 08:04:32;;;;;;;45.92;30.05;;;9.30;99.90;;;;;;4879824;28;89537;-33
2023/04/17 08:06:58;;;;;;;50.20;35.80;;;9.40;99.90;;;;;;4879212;28;89711;-35
2023/04/17 08:09:24;;;;;;;65.22;40.25;;;9.40;99.90;;;;;;4880816;28;89202;-33
2023/04/17 08:11:50;;;;;;;55.95;38.45;;;9.40;99.90;;;;;;4879134;28;91557;-34
2023/04/17 08:14:19;;;;;;;46.22;29.02;;;9.50;99.90;;;;;;4879157;28;90767;-34
2023/04/17 08:16:48;;;;;;;;;;;9.50;99.90;;;;;;4881010;28;90209;-32
2023/04/17 08:19:14;;;;;;;48.88;32.90;;;9.60;99.90;;;;;;4893583;28;89207;-34
2023/04/17 08:21:40;;;;;;;57.15;36.15;;;9.70;99.90;;;;;;4878896;28;89946;-35
2023/04/17 08:24:06;;;;;;;46.20;31.55;;;9.80;99.90;;;;;;4870095;28;89394;-32
2023/04/17 08:26:32;;;;;;;52.97;34.15;;;9.90;99.90;;;;;;4880009;28;90185;-32
2023/04/17 08:29:00;;;;;;;56.80;34.35;;;10.00;99.90;;;;;;4878778;28;88991;-30
2023/04/17 08:31:27;;;;;;;59.83;37.63;;;10.20;99.90;;;;;;4879814;28;90604;-32
2023/04/17 08:33:53;;;;;;;55.13;34.05;;;10.20;99.90;;;;;;4879186;28;89414;-33
2023/04/17 08:36:19;;;;;;;51.67;34.25;;;10.40;99.90;;;;;;4879626;28;90402;-31
2023/04/17 08:38:46;;;;;;;48.63;37.05;;;10.40;99.90;;;;;;4878375;28;90014;-33
2023/04/17 08:41:14;;;;;;;43.05;34.00;;;10.40;99.90;;;;;;4880136;28;91208;-34
2023/04/17 08:43:41;;;;;;;52.10;34.13;;;10.60;99.90;;;;;;4879113;28;90005;-34
2023/04/17 08:46:06;;;;;;;48.25;33.50;;;10.70;99.90;;;;;;4879451;28;89002;-31
2023/04/17 08:48:32;;;;;;;47.53;31.30;;;11.00;99.90;;;;;;4878944;28;89046;-33
2023/04/17 08:50:58;;;;;;;42.45;30.98;;;10.90;99.90;;;;;;4878982;28;90304;-32
2023/04/17 08:53:23;;;;;;;45.60;31.23;;;11.00;99.90;;;;;;4878804;28;88660;-33
2023/04/17 08:55:49;;;;;;;46.83;34.25;;;11.10;99.90;;;;;;4879094;28;89606;-33
2023/04/17 08:58:15;;;;;;;46.38;31.58;;;11.30;99.90;;;;;;4878942;28;88603;-32
2023/04/17 09:00:42;;;;;;;50.83;33.63;;;11.40;99.90;;;;;;4879532;28;90124;-33
2023/04/17 09:03:13;;;;;;;52.30;35.13;;;11.60;99.90;;;;;;4878555;28;91533;-31
2023/04/17 09:05:42;;;;;;;47.63;30.40;;;11.80;99.90;;;;;;4879604;28;90439;-33
2023/04/17 09:08:16;;;;;;;38.33;27.90;;;11.90;99.90;;;;;;4878439;28;88630;-31
2023/04/17 09:10:47;;;;;;;40.80;29.25;;;11.90;99.90;;;;;;4879006;28;89489;-36
2023/04/17 09:13:15;;;;;;;49.70;34.65;;;12.00;99.90;;;;;;4877601;28;90111;-35
2023/04/17 09:15:42;;;;;;;53.20;35.55;;;12.20;99.90;;;;;;4878141;28;89734;-33
2023/04/17 09:18:24;;;;;;;32.78;25.83;;;12.30;99.90;;;;;;4878905;28;88099;-32
2023/04/17 09:20:50;;;;;;;39.22;26.77;;;12.20;99.90;;;;;;4878879;28;90341;-34
2023/04/17 09:23:16;;;;;;;32.03;22.98;;;12.20;99.90;;;;;;4872525;28;90286;-32
2023/04/17 09:25:41;;;;;;;31.77;26.10;;;12.20;99.90;;;;;;4872637;28;89207;-33
2023/04/17 09:28:13;;;;;;;38.88;28.65;;;12.50;99.90;;;;;;4878583;28;88774;-32
2023/04/17 09:30:39;;;;;;;39.72;27.90;;;12.50;99.90;;;;;;4878749;28;89781;-34
2023/04/17 09:33:07;;;;;;;39.40;30.30;;;12.60;99.90;;;;;;4878979;28;90167;-32
2023/04/17 09:35:34;;;;;;;40.07;26.20;;;12.70;99.90;;;;;;4878752;28;90402;-34
2023/04/17 09:38:00;;;;;;;43.25;29.33;;;12.70;99.90;;;;;;4878388;28;89083;-30
2023/04/17 09:40:34;;;;;;;47.38;27.80;;;12.90;99.90;;;;;;4878513;28;90314;-31
2023/04/17 09:43:01;;;;;;;34.90;25.73;;;13.10;99.90;;;;;;4878137;28;89608;-31
2023/04/17 09:45:34;;;;;;;34.72;24.63;;;13.10;99.90;;;;;;4878909;28;90573;-32
2023/04/17 09:48:01;;;;;;;30.50;24.08;;;13.10;99.90;;;;;;4878628;28;89491;-35
2023/04/17 09:50:27;;;;;;;31.65;23.92;;;13.20;99.90;;;;;;4878416;28;90346;-34
2023/04/17 09:52:54;;;;;;;41.92;27.38;;;13.20;99.90;;;;;;4877618;28;90709;-30
2023/04/17 09:55:22;;;;;;;29.17;22.80;;;13.40;99.90;;;;;;4878321;28;90353;-34
2023/04/17 09:57:50;;;;;;;28.80;22.15;;;13.30;99.90;;;;;;4878157;28;88436;-31
2023/04/17 10:00:17;;;;;;;35.23;23.70;;;13.30;99.90;;;;;;4878493;28;90306;-34
2023/04/17 10:02:44;;;;;;;26.30;22.27;;;13.50;99.90;;;;;;4878717;28;90207;-32
2023/04/17 10:05:10;;;;;;;25.75;20.52;;;13.70;99.90;;;;;;4878273;28;90702;-33
2023/04/17 10:07:37;;;;;;;30.33;23.60;;;13.70;99.90;;;;;;4877836;28;89693;-33
2023/04/17 10:10:08;;;;;;;28.80;20.95;;;13.60;99.90;;;;;;4878099;28;90251;-33
2023/04/17 10:12:37;;;;;;;21.10;16.77;;;13.70;99.90;;;;;;4878793;28;90611;-30
2023/04/17 10:15:06;;;;;;;21.25;15.73;;;13.70;99.90;;;;;;4877422;28;89593;-31
2023/04/17 10:17:33;;;;;;;25.35;18.70;;;14.00;99.90;;;;;;4877917;28;90234;-32
2023/04/17 10:20:16;;;;;;;24.95;18.73;;;14.10;99.90;;;;;;4878103;28;90551;-30
2023/04/17 10:22:43;;;;;;;24.00;18.83;;;14.40;99.90;;;;;;4875180;28;90074;-34
2023/04/17 10:25:12;;;;;;;21.33;17.95;;;14.50;99.90;;;;;;4869982;28;89450;-32
2023/04/17 10:27:38;;;;;;;17.45;15.25;;;14.70;99.90;;;;;;4881467;28;88330;-32
2023/04/17 10:30:08;;;;;;;22.23;15.70;;;14.60;99.90;;;;;;4881058;28;88942;-33
2023/04/17 10:32:34;;;;;;;19.70;16.02;;;14.70;99.90;;;;;;4881222;28;88213;-33
2023/04/17 10:35:15;;;;;;;22.27;15.48;;;14.60;99.90;;;;;;4878639;28;89483;-34
2023/04/17 10:37:46;;;;;;;23.20;16.65;;;14.60;99.90;;;;;;4873306;28;89819;-33
2023/04/17 10:40:19;;;;;;;19.75;15.30;;;14.50;99.90;;;;;;4880599;28;90297;-33
2023/04/17 10:43:12;;;;;;;24.17;16.55;;;14.50;99.90;;;;;;4880981;28;90755;-34
2023/04/17 10:45:55;;;;;;;19.88;17.67;;;14.50;99.90;;;;;;4871350;28;89507;-31
2023/04/17 10:48:28;;;;;;;18.25;16.35;;;14.60;99.90;;;;;;4881669;28;88221;-31
2023/04/17 10:50:55;;;;;;;17.60;13.88;;;14.80;99.90;;;;;;4880165;28;90380;-34
2023/04/17 10:53:38;;;;;;;19.17;16.23;;;15.00;99.90;;;;;;4881020;28;89389;-35
2023/04/17 10:56:04;;;;;;;20.25;17.67;;;15.10;99.90;;;;;;4880280;28;89608;-31
2023/04/17 10:58:29;;;;;;;18.95;15.18;;;15.00;99.90;;;;;;4881474;28;88313;-32
2023/04/17 11:00:55;;;;;;;23.50;18.45;;;15.20;99.90;;;;;;4880851;28;89139;-32
2023/04/17 11:03:25;;;;;;;19.02;16.60;;;15.20;99.90;;;;;;4880970;28;89220;-34
2023/04/17 11:05:51;;;;;;;19.05;16.58;;;15.30;99.90;;;;;;4877306;28;90233;-35
2023/04/17 11:08:17;;;;;;;18.90;16.73;;;15.40;99.90;;;;;;4870373;28;89993;-33
2023/04/17 11:10:42;;;;;;;19.15;17.25;;;15.30;99.90;;;;;;4879977;28;90720;-31
2023/04/17 11:13:09;;;;;;;21.08;18.80;;;15.20;99.90;;;;;;4881205;28;89425;-33
2023/04/17 11:15:35;;;;;;;21.42;19.15;;;14.90;99.90;;;;;;4879913;28;90642;-33
2023/04/17 11:18:02;;;;;;;20.88;18.70;;;14.60;99.90;;;;;;4880285;28;90224;-33
2023/04/17 11:20:29;;;;;;;27.67;18.20;;;14.50;99.90;;;;;;4880396;28;90369;-33
2023/04/17 11:22:59;;;;;;;23.38;18.25;;;14.40;99.90;;;;;;4876321;28;90937;-34
2023/04/17 11:25:26;;;;;;;22.27;18.83;;;14.50;99.90;;;;;;4872786;28;89717;-33
2023/04/17 11:27:57;;;;;;;24.25;19.20;;;14.70;99.90;;;;;;4879885;28;88300;-32
2023/04/17 11:30:31;;;;;;;22.60;19.48;;;14.90;99.90;;;;;;4879941;28;89861;-34
2023/04/17 11:32:58;;;;;;;22.75;19.08;;;15.20;99.90;;;;;;4879984;28;89237;-34
2023/04/17 11:35:35;;;;;;;22.40;20.13;;;15.00;99.90;;;;;;4880323;28;90303;-32
2023/04/17 11:38:03;;;;;;;20.45;17.67;;;14.90;99.90;;;;;;4880211;28;89719;-33
2023/04/17 11:40:29;;;;;;;23.92;19.75;;;15.00;99.90;;;;;;4879723;28;90268;-32
2023/04/17 11:42:55;;;;;;;25.10;20.20;;;15.00;99.90;;;;;;4880114;28;89102;-33
2023/04/17 11:45:20;;;;;;;21.73;19.42;;;15.10;99.90;;;;;;4879663;28;89804;-34
2023/04/17 11:47:47;;;;;;;24.13;21.40;;;15.30;99.90;;;;;;4880260;28;88300;-34
2023/04/17 11:50:15;;;;;;;24.25;19.70;;;15.30;99.90;;;;;;4880708;28;90505;-33
2023/04/17 11:52:41;;;;;;;21.83;19.77;;;15.40;99.90;;;;;;4879234;28;89935;-34
2023/04/17 11:55:08;;;;;;;20.15;17.92;;;15.60;99.90;;;;;;4878969;28;89655;-31
2023/04/17 11:57:43;;;;;;;22.95;20.10;;;15.40;99.90;;;;;;4879929;28;90596;-32
2023/04/17 12:00:13;;;;;;;22.42;19.33;;;15.30;99.90;;;;;;4878168;28;89923;-33
2023/04/17 12:02:38;;;;;;;22.70;20.33;;;15.30;99.90;;;;;;4880528;28;91170;-32
2023/04/17 12:05:16;;;;;;;28.20;21.33;;;15.40;99.90;;;;;;4879833;28;90192;-34
2023/04/17 12:07:41;;;;;;;20.37;18.33;;;15.60;99.90;;;;;;4918921;23;88651;-33
2023/04/17 12:10:08;;;;;;;25.38;19.15;;;15.60;99.90;;;;;;4898618;28;90356;-34
2023/04/17 12:12:33;;;;;;;24.98;21.67;;;15.50;99.90;;;;;;4899269;28;89827;-31
2023/04/17 12:14:59;;;;;;;23.08;20.20;;;15.50;99.90;;;;;;4899681;28;89574;-34
2023/04/17 12:17:26;;;;;;;21.83;17.88;;;15.60;99.90;;;;;;4897985;28;89058;-30
2023/04/17 12:19:52;;;;;;;23.98;19.15;;;15.60;99.90;;;;;;4898710;28;90101;-31
2023/04/17 12:22:18;;;;;;;22.48;18.65;;;15.40;99.90;;;;;;4898069;28;90567;-33
2023/04/17 12:24:43;;;;;;;26.70;19.70;;;15.30;99.90;;;;;;4885877;28;89335;-33
2023/04/17 12:27:09;;;;;;;24.58;19.55;;;15.00;98.40;;;;;;4899455;28;88312;-35
2023/04/17 12:29:35;;;;;;;27.67;21.00;;;15.20;99.90;;;;;;4897900;28;89730;-31
2023/04/17 12:32:00;;;;;;;22.20;19.00;;;15.30;99.90;;;;;;4898340;28;89604;-32